sensor_id;sensor_type;location;lat;lon;timestamp;P1;durP1;ratioP1;P2;durP2;ratioP2
4603;SDS011;2314;48.272;11.562;2022-10-19T00:01:12;135.00;;;14.07;;
4603;SDS011;2314;48.272;11.562;2022-10-19T00:03:43;134.67;;;12.97;;
4603;SDS011;2314;48.272;11.562;2022-10-19T00:06:14;143.20;;;13.00;;
4603;SDS011;2314;48.272;11.562;2022-10-19T00:08:44;142.10;;;13.17;;
4603;SDS011;2314;48.272;11.562;2022-10-19T00:11:11;134.37;;;12.43;;
4603;SDS011;2314;48.272;11.562;2022-10-19T00:13:39;132.67;;;11.90;;
4603;SDS011;2314;48.272;11.562;2022-10-19T00:16:07;132.87;;;11.87;;
4603;SDS011;2314;48.272;11.562;2022-10-19T00:18:37;131.50;;;11.00;;
4603;SDS011;2314;48.272;11.562;2022-10-19T00:21:10;138.90;;;11.13;;
4603;SDS011;2314;48.272;11.562;2022-10-19T00:23:42;133.47;;;11.67;;
4603;SDS011;2314;48.272;11.562;2022-10-19T00:26:11;144.37;;;11.10;;
4603;SDS011;2314;48.272;11.562;2022-10-19T00:28:38;136.67;;;10.87;;
4603;SDS011;2314;48.272;11.562;2022-10-19T00:31:07;132.17;;;11.03;;
4603;SDS011;2314;48.272;11.562;2022-10-19T00:33:37;138.20;;;11.60;;
4603;SDS011;2314;48.272;11.562;2022-10-19T00:36:04;139.70;;;11.37;;
4603;SDS011;2314;48.272;11.562;2022-10-19T00:38:40;133.00;;;10.90;;
4603;SDS011;2314;48.272;11.562;2022-10-19T00:41:07;135.70;;;12.60;;
4603;SDS011;2314;48.272;11.562;2022-10-19T00:43:48;133.60;;;12.13;;
4603;SDS011;2314;48.272;11.562;2022-10-19T00:46:18;133.47;;;11.20;;
4603;SDS011;2314;48.272;11.562;2022-10-19T00:48:46;133.40;;;11.13;;
4603;SDS011;2314;48.272;11.562;2022-10-19T00:51:13;132.40;;;10.47;;
4603;SDS011;2314;48.272;11.562;2022-10-19T00:53:41;132.53;;;11.13;;
4603;SDS011;2314;48.272;11.562;2022-10-19T00:56:09;132.10;;;11.23;;
4603;SDS011;2314;48.272;11.562;2022-10-19T00:58:40;135.30;;;12.60;;
4603;SDS011;2314;48.272;11.562;2022-10-19T01:01:08;132.90;;;11.33;;
4603;SDS011;2314;48.272;11.562;2022-10-19T01:03:41;132.67;;;11.87;;
4603;SDS011;2314;48.272;11.562;2022-10-19T01:06:08;137.00;;;11.40;;
4603;SDS011;2314;48.272;11.562;2022-10-19T01:08:39;131.30;;;10.50;;
4603;SDS011;2314;48.272;11.562;2022-10-19T01:11:14;132.10;;;10.23;;
4603;SDS011;2314;48.272;11.562;2022-10-19T01:13:57;129.33;;;9.60;;
4603;SDS011;2314;48.272;11.562;2022-10-19T01:16:41;130.43;;;9.43;;
4603;SDS011;2314;48.272;11.562;2022-10-19T01:19:23;127.00;;;8.23;;
4603;SDS011;2314;48.272;11.562;2022-10-19T01:22:40;129.17;;;8.17;;
4603;SDS011;2314;48.272;11.562;2022-10-19T01:25:23;129.47;;;7.73;;
4603;SDS011;2314;48.272;11.562;2022-10-19T01:28:13;126.40;;;8.20;;
4603;SDS011;2314;48.272;11.562;2022-10-19T01:31:00;126.73;;;8.03;;
4603;SDS011;2314;48.272;11.562;2022-10-19T01:33:36;128.57;;;8.20;;
4603;SDS011;2314;48.272;11.562;2022-10-19T01:36:13;127.57;;;8.57;;
4603;SDS011;2314;48.272;11.562;2022-10-19T01:38:49;135.23;;;8.37;;
4603;SDS011;2314;48.272;11.562;2022-10-19T01:41:25;126.87;;;7.27;;
4603;SDS011;2314;48.272;11.562;2022-10-19T01:44:00;124.97;;;7.20;;
4603;SDS011;2314;48.272;11.562;2022-10-19T01:46:38;125.37;;;7.50;;
4603;SDS011;2314;48.272;11.562;2022-10-19T01:49:10;128.30;;;7.40;;
4603;SDS011;2314;48.272;11.562;2022-10-19T01:51:44;125.30;;;7.50;;
4603;SDS011;2314;48.272;11.562;2022-10-19T01:54:17;125.27;;;7.80;;
4603;SDS011;2314;48.272;11.562;2022-10-19T01:56:46;125.97;;;8.10;;
4603;SDS011;2314;48.272;11.562;2022-10-19T01:59:15;127.37;;;7.83;;
4603;SDS011;2314;48.272;11.562;2022-10-19T02:01:46;127.27;;;8.63;;
4603;SDS011;2314;48.272;11.562;2022-10-19T02:04:17;128.60;;;8.10;;
4603;SDS011;2314;48.272;11.562;2022-10-19T02:06:46;127.03;;;8.23;;
4603;SDS011;2314;48.272;11.562;2022-10-19T02:09:15;126.30;;;8.03;;
4603;SDS011;2314;48.272;11.562;2022-10-19T02:11:44;126.10;;;7.80;;
4603;SDS011;2314;48.272;11.562;2022-10-19T02:14:16;125.73;;;8.20;;
4603;SDS011;2314;48.272;11.562;2022-10-19T02:16:50;127.47;;;8.33;;
4603;SDS011;2314;48.272;11.562;2022-10-19T02:19:22;126.20;;;7.67;;
4603;SDS011;2314;48.272;11.562;2022-10-19T02:21:50;126.97;;;8.13;;
4603;SDS011;2314;48.272;11.562;2022-10-19T02:24:17;127.97;;;8.23;;
4603;SDS011;2314;48.272;11.562;2022-10-19T02:26:44;126.07;;;8.13;;
4603;SDS011;2314;48.272;11.562;2022-10-19T02:29:12;129.97;;;8.07;;
4603;SDS011;2314;48.272;11.562;2022-10-19T02:31:40;130.80;;;8.77;;
4603;SDS011;2314;48.272;11.562;2022-10-19T02:34:10;134.07;;;10.93;;
4603;SDS011;2314;48.272;11.562;2022-10-19T02:36:38;128.57;;;9.27;;
4603;SDS011;2314;48.272;11.562;2022-10-19T02:39:05;130.83;;;8.90;;
4603;SDS011;2314;48.272;11.562;2022-10-19T02:41:33;132.80;;;9.10;;
4603;SDS011;2314;48.272;11.562;2022-10-19T02:44:06;136.37;;;9.40;;
4603;SDS011;2314;48.272;11.562;2022-10-19T02:46:41;131.63;;;9.23;;
4603;SDS011;2314;48.272;11.562;2022-10-19T02:49:12;128.13;;;8.83;;
4603;SDS011;2314;48.272;11.562;2022-10-19T02:51:40;131.73;;;9.10;;
4603;SDS011;2314;48.272;11.562;2022-10-19T02:54:23;127.57;;;9.47;;
4603;SDS011;2314;48.272;11.562;2022-10-19T02:56:50;129.27;;;9.37;;
4603;SDS011;2314;48.272;11.562;2022-10-19T02:59:17;136.47;;;9.33;;
4603;SDS011;2314;48.272;11.562;2022-10-19T03:01:45;130.70;;;10.20;;
4603;SDS011;2314;48.272;11.562;2022-10-19T03:04:13;127.97;;;9.40;;
4603;SDS011;2314;48.272;11.562;2022-10-19T03:06:40;134.17;;;10.07;;
4603;SDS011;2314;48.272;11.562;2022-10-19T03:09:08;135.87;;;9.90;;
4603;SDS011;2314;48.272;11.562;2022-10-19T03:11:35;134.33;;;10.30;;
4603;SDS011;2314;48.272;11.562;2022-10-19T03:14:02;131.20;;;10.20;;
4603;SDS011;2314;48.272;11.562;2022-10-19T03:16:29;133.60;;;10.73;;
4603;SDS011;2314;48.272;11.562;2022-10-19T03:18:56;130.70;;;10.20;;
4603;SDS011;2314;48.272;11.562;2022-10-19T03:21:24;129.03;;;9.83;;
4603;SDS011;2314;48.272;11.562;2022-10-19T03:23:51;129.87;;;9.60;;
4603;SDS011;2314;48.272;11.562;2022-10-19T03:26:18;128.00;;;9.77;;
4603;SDS011;2314;48.272;11.562;2022-10-19T03:28:45;133.20;;;10.60;;
4603;SDS011;2314;48.272;11.562;2022-10-19T03:31:12;129.77;;;9.67;;
4603;SDS011;2314;48.272;11.562;2022-10-19T03:33:39;128.27;;;10.07;;
4603;SDS011;2314;48.272;11.562;2022-10-19T03:36:17;128.47;;;9.17;;
4603;SDS011;2314;48.272;11.562;2022-10-19T03:38:50;129.40;;;10.23;;
4603;SDS011;2314;48.272;11.562;2022-10-19T03:41:18;128.03;;;9.10;;
4603;SDS011;2314;48.272;11.562;2022-10-19T03:43:46;129.00;;;10.73;;
4603;SDS011;2314;48.272;11.562;2022-10-19T03:46:14;127.10;;;9.40;;
4603;SDS011;2314;48.272;11.562;2022-10-19T03:48:41;128.47;;;9.53;;
4603;SDS011;2314;48.272;11.562;2022-10-19T03:51:09;130.97;;;10.33;;
4603;SDS011;2314;48.272;11.562;2022-10-19T03:53:39;131.57;;;9.37;;
4603;SDS011;2314;48.272;11.562;2022-10-19T03:56:10;129.17;;;10.27;;
4603;SDS011;2314;48.272;11.562;2022-10-19T03:58:39;129.50;;;10.67;;
4603;SDS011;2314;48.272;11.562;2022-10-19T04:01:08;129.80;;;11.23;;
4603;SDS011;2314;48.272;11.562;2022-10-19T04:03:37;132.90;;;11.80;;
4603;SDS011;2314;48.272;11.562;2022-10-19T04:06:05;139.57;;;10.47;;
4603;SDS011;2314;48.272;11.562;2022-10-19T04:08:34;132.80;;;11.80;;
4603;SDS011;2314;48.272;11.562;2022-10-19T04:11:02;129.37;;;10.67;;
4603;SDS011;2314;48.272;11.562;2022-10-19T04:13:33;128.60;;;11.23;;
4603;SDS011;2314;48.272;11.562;2022-10-19T04:16:00;130.60;;;10.93;;
4603;SDS011;2314;48.272;11.562;2022-10-19T04:18:28;131.40;;;11.30;;
4603;SDS011;2314;48.272;11.562;2022-10-19T04:20:55;130.13;;;12.30;;
4603;SDS011;2314;48.272;11.562;2022-10-19T04:23:23;130.87;;;10.97;;
4603;SDS011;2314;48.272;11.562;2022-10-19T04:25:57;135.53;;;12.10;;
4603;SDS011;2314;48.272;11.562;2022-10-19T04:28:25;130.27;;;11.00;;
4603;SDS011;2314;48.272;11.562;2022-10-19T04:30:53;132.60;;;12.27;;
4603;SDS011;2314;48.272;11.562;2022-10-19T04:33:21;131.00;;;11.87;;
4603;SDS011;2314;48.272;11.562;2022-10-19T04:35:48;135.13;;;12.30;;
4603;SDS011;2314;48.272;11.562;2022-10-19T04:38:15;137.57;;;12.13;;
4603;SDS011;2314;48.272;11.562;2022-10-19T04:40:42;131.33;;;11.83;;
4603;SDS011;2314;48.272;11.562;2022-10-19T04:43:09;136.43;;;12.10;;
4603;SDS011;2314;48.272;11.562;2022-10-19T04:45:36;134.60;;;12.20;;
4603;SDS011;2314;48.272;11.562;2022-10-19T04:48:04;130.50;;;11.60;;
4603;SDS011;2314;48.272;11.562;2022-10-19T04:50:31;131.77;;;12.80;;
4603;SDS011;2314;48.272;11.562;2022-10-19T04:52:58;136.90;;;13.63;;
4603;SDS011;2314;48.272;11.562;2022-10-19T04:55:25;133.37;;;12.40;;
4603;SDS011;2314;48.272;11.562;2022-10-19T04:57:52;133.23;;;12.43;;
4603;SDS011;2314;48.272;11.562;2022-10-19T05:00:19;130.80;;;12.80;;
4603;SDS011;2314;48.272;11.562;2022-10-19T05:02:47;131.40;;;12.50;;
4603;SDS011;2314;48.272;11.562;2022-10-19T05:05:15;135.67;;;13.73;;
4603;SDS011;2314;48.272;11.562;2022-10-19T05:07:42;133.97;;;13.63;;
4603;SDS011;2314;48.272;11.562;2022-10-19T05:10:09;131.70;;;13.10;;
4603;SDS011;2314;48.272;11.562;2022-10-19T05:12:37;136.33;;;14.37;;
4603;SDS011;2314;48.272;11.562;2022-10-19T05:15:04;134.50;;;13.00;;
4603;SDS011;2314;48.272;11.562;2022-10-19T05:17:32;134.03;;;14.57;;
4603;SDS011;2314;48.272;11.562;2022-10-19T05:19:59;131.70;;;12.33;;
4603;SDS011;2314;48.272;11.562;2022-10-19T05:22:27;135.03;;;14.40;;
4603;SDS011;2314;48.272;11.562;2022-10-19T05:24:54;136.17;;;13.97;;
4603;SDS011;2314;48.272;11.562;2022-10-19T05:27:21;134.77;;;14.23;;
4603;SDS011;2314;48.272;11.562;2022-10-19T05:29:48;132.57;;;13.90;;
4603;SDS011;2314;48.272;11.562;2022-10-19T05:32:15;135.60;;;14.60;;
4603;SDS011;2314;48.272;11.562;2022-10-19T05:34:42;153.93;;;14.07;;
4603;SDS011;2314;48.272;11.562;2022-10-19T05:37:09;132.70;;;13.13;;
4603;SDS011;2314;48.272;11.562;2022-10-19T05:39:38;140.87;;;14.90;;
4603;SDS011;2314;48.272;11.562;2022-10-19T05:42:05;136.40;;;13.40;;
4603;SDS011;2314;48.272;11.562;2022-10-19T05:44:32;133.40;;;13.47;;
4603;SDS011;2314;48.272;11.562;2022-10-19T05:47:00;137.10;;;15.13;;
4603;SDS011;2314;48.272;11.562;2022-10-19T05:49:27;141.07;;;13.67;;
4603;SDS011;2314;48.272;11.562;2022-10-19T05:51:54;135.80;;;14.43;;
4603;SDS011;2314;48.272;11.562;2022-10-19T05:54:21;135.17;;;14.10;;
4603;SDS011;2314;48.272;11.562;2022-10-19T05:56:50;138.67;;;15.90;;
4603;SDS011;2314;48.272;11.562;2022-10-19T05:59:18;135.47;;;15.07;;
4603;SDS011;2314;48.272;11.562;2022-10-19T06:01:46;138.90;;;15.00;;
4603;SDS011;2314;48.272;11.562;2022-10-19T06:04:13;137.83;;;16.23;;
4603;SDS011;2314;48.272;11.562;2022-10-19T06:06:41;139.07;;;16.70;;
4603;SDS011;2314;48.272;11.562;2022-10-19T06:09:08;136.87;;;16.37;;
4603;SDS011;2314;48.272;11.562;2022-10-19T06:11:36;144.13;;;18.07;;
4603;SDS011;2314;48.272;11.562;2022-10-19T06:14:07;138.87;;;17.00;;
4603;SDS011;2314;48.272;11.562;2022-10-19T06:16:38;144.90;;;19.17;;
4603;SDS011;2314;48.272;11.562;2022-10-19T06:19:05;139.23;;;16.93;;
4603;SDS011;2314;48.272;11.562;2022-10-19T06:21:33;138.87;;;17.27;;
4603;SDS011;2314;48.272;11.562;2022-10-19T06:24:01;145.67;;;17.33;;
4603;SDS011;2314;48.272;11.562;2022-10-19T06:26:31;140.67;;;18.37;;
4603;SDS011;2314;48.272;11.562;2022-10-19T06:29:00;139.37;;;17.50;;
4603;SDS011;2314;48.272;11.562;2022-10-19T06:31:29;142.80;;;18.57;;
4603;SDS011;2314;48.272;11.562;2022-10-19T06:33:58;155.00;;;21.47;;
4603;SDS011;2314;48.272;11.562;2022-10-19T06:36:26;145.70;;;20.23;;
4603;SDS011;2314;48.272;11.562;2022-10-19T06:38:55;148.20;;;20.07;;
4603;SDS011;2314;48.272;11.562;2022-10-19T06:41:23;143.70;;;20.00;;
4603;SDS011;2314;48.272;11.562;2022-10-19T06:43:51;146.10;;;20.87;;
4603;SDS011;2314;48.272;11.562;2022-10-19T06:46:22;157.03;;;21.73;;
4603;SDS011;2314;48.272;11.562;2022-10-19T06:48:53;152.70;;;22.20;;
4603;SDS011;2314;48.272;11.562;2022-10-19T06:51:23;159.00;;;22.80;;
4603;SDS011;2314;48.272;11.562;2022-10-19T06:53:51;155.63;;;20.00;;
4603;SDS011;2314;48.272;11.562;2022-10-19T06:56:18;149.37;;;21.27;;
4603;SDS011;2314;48.272;11.562;2022-10-19T06:58:46;161.40;;;23.07;;
4603;SDS011;2314;48.272;11.562;2022-10-19T07:01:14;163.17;;;23.97;;
4603;SDS011;2314;48.272;11.562;2022-10-19T07:03:41;166.50;;;23.00;;
4603;SDS011;2314;48.272;11.562;2022-10-19T07:06:10;160.90;;;23.37;;
4603;SDS011;2314;48.272;11.562;2022-10-19T07:08:38;165.67;;;23.47;;
4603;SDS011;2314;48.272;11.562;2022-10-19T07:11:08;162.80;;;25.57;;
4603;SDS011;2314;48.272;11.562;2022-10-19T07:13:38;161.73;;;23.60;;
4603;SDS011;2314;48.272;11.562;2022-10-19T07:16:06;159.47;;;22.97;;
4603;SDS011;2314;48.272;11.562;2022-10-19T07:18:35;172.00;;;24.70;;
4603;SDS011;2314;48.272;11.562;2022-10-19T07:21:04;163.87;;;24.10;;
4603;SDS011;2314;48.272;11.562;2022-10-19T07:23:35;157.87;;;22.03;;
4603;SDS011;2314;48.272;11.562;2022-10-19T07:26:04;158.03;;;23.20;;
4603;SDS011;2314;48.272;11.562;2022-10-19T07:28:36;157.93;;;21.93;;
4603;SDS011;2314;48.272;11.562;2022-10-19T07:31:05;146.13;;;20.20;;
4603;SDS011;2314;48.272;11.562;2022-10-19T07:33:33;145.37;;;19.10;;
4603;SDS011;2314;48.272;11.562;2022-10-19T07:36:01;144.10;;;18.20;;
4603;SDS011;2314;48.272;11.562;2022-10-19T07:38:31;143.90;;;17.37;;
4603;SDS011;2314;48.272;11.562;2022-10-19T07:41:01;143.43;;;18.23;;
4603;SDS011;2314;48.272;11.562;2022-10-19T07:43:31;142.20;;;17.50;;
4603;SDS011;2314;48.272;11.562;2022-10-19T07:45:59;135.03;;;15.40;;
4603;SDS011;2314;48.272;11.562;2022-10-19T07:48:27;140.50;;;16.50;;
4603;SDS011;2314;48.272;11.562;2022-10-19T07:50:55;138.87;;;15.43;;
4603;SDS011;2314;48.272;11.562;2022-10-19T07:53:22;137.80;;;16.20;;
4603;SDS011;2314;48.272;11.562;2022-10-19T07:55:51;143.67;;;17.20;;
4603;SDS011;2314;48.272;11.562;2022-10-19T07:58:18;139.47;;;16.80;;
4603;SDS011;2314;48.272;11.562;2022-10-19T08:00:45;141.43;;;16.63;;
4603;SDS011;2314;48.272;11.562;2022-10-19T08:03:12;148.87;;;18.20;;
4603;SDS011;2314;48.272;11.562;2022-10-19T08:05:39;143.80;;;17.33;;
4603;SDS011;2314;48.272;11.562;2022-10-19T08:08:06;164.83;;;19.73;;
4603;SDS011;2314;48.272;11.562;2022-10-19T08:10:33;146.43;;;16.70;;
4603;SDS011;2314;48.272;11.562;2022-10-19T08:13:01;146.87;;;17.77;;
4603;SDS011;2314;48.272;11.562;2022-10-19T08:15:28;152.90;;;19.83;;
4603;SDS011;2314;48.272;11.562;2022-10-19T08:17:56;145.43;;;18.70;;
4603;SDS011;2314;48.272;11.562;2022-10-19T08:20:24;145.83;;;17.53;;
4603;SDS011;2314;48.272;11.562;2022-10-19T08:22:52;148.20;;;19.40;;
4603;SDS011;2314;48.272;11.562;2022-10-19T08:25:19;148.70;;;19.10;;
4603;SDS011;2314;48.272;11.562;2022-10-19T08:27:46;147.83;;;19.17;;
4603;SDS011;2314;48.272;11.562;2022-10-19T08:30:14;147.03;;;18.80;;
4603;SDS011;2314;48.272;11.562;2022-10-19T08:32:41;150.93;;;19.57;;
4603;SDS011;2314;48.272;11.562;2022-10-19T08:35:08;149.27;;;18.50;;
4603;SDS011;2314;48.272;11.562;2022-10-19T08:37:35;148.83;;;19.47;;
4603;SDS011;2314;48.272;11.562;2022-10-19T08:40:03;141.90;;;17.90;;
4603;SDS011;2314;48.272;11.562;2022-10-19T08:42:45;148.93;;;20.17;;
4603;SDS011;2314;48.272;11.562;2022-10-19T08:45:31;144.10;;;18.80;;
4603;SDS011;2314;48.272;11.562;2022-10-19T08:48:11;144.37;;;17.80;;
4603;SDS011;2314;48.272;11.562;2022-10-19T08:50:50;148.57;;;18.37;;
4603;SDS011;2314;48.272;11.562;2022-10-19T08:53:20;141.80;;;17.20;;
4603;SDS011;2314;48.272;11.562;2022-10-19T08:56:02;145.97;;;18.97;;
4603;SDS011;2314;48.272;11.562;2022-10-19T08:58:50;140.67;;;17.70;;
4603;SDS011;2314;48.272;11.562;2022-10-19T09:01:31;140.87;;;17.80;;
4603;SDS011;2314;48.272;11.562;2022-10-19T09:04:05;141.43;;;17.90;;
4603;SDS011;2314;48.272;11.562;2022-10-19T09:06:43;141.97;;;18.37;;
4603;SDS011;2314;48.272;11.562;2022-10-19T09:09:18;139.83;;;15.63;;
4603;SDS011;2314;48.272;11.562;2022-10-19T09:11:47;134.77;;;14.30;;
4603;SDS011;2314;48.272;11.562;2022-10-19T09:14:17;130.47;;;12.93;;
4603;SDS011;2314;48.272;11.562;2022-10-19T09:16:49;137.90;;;15.00;;
4603;SDS011;2314;48.272;11.562;2022-10-19T09:19:17;133.40;;;13.37;;
4603;SDS011;2314;48.272;11.562;2022-10-19T09:21:53;130.87;;;13.70;;
4603;SDS011;2314;48.272;11.562;2022-10-19T09:24:27;129.50;;;13.10;;
4603;SDS011;2314;48.272;11.562;2022-10-19T09:26:59;132.03;;;13.00;;
4603;SDS011;2314;48.272;11.562;2022-10-19T09:29:29;133.17;;;11.60;;
4603;SDS011;2314;48.272;11.562;2022-10-19T09:32:04;126.37;;;11.03;;
4603;SDS011;2314;48.272;11.562;2022-10-19T09:34:40;132.10;;;13.23;;
4603;SDS011;2314;48.272;11.562;2022-10-19T09:37:10;132.03;;;11.93;;
4603;SDS011;2314;48.272;11.562;2022-10-19T09:39:38;128.03;;;10.60;;
4603;SDS011;2314;48.272;11.562;2022-10-19T09:42:07;129.50;;;12.40;;
4603;SDS011;2314;48.272;11.562;2022-10-19T09:44:43;127.47;;;11.00;;
4603;SDS011;2314;48.272;11.562;2022-10-19T09:47:17;126.30;;;11.20;;
4603;SDS011;2314;48.272;11.562;2022-10-19T09:50:05;137.10;;;12.47;;
4603;SDS011;2314;48.272;11.562;2022-10-19T09:52:39;129.10;;;12.03;;
4603;SDS011;2314;48.272;11.562;2022-10-19T09:55:16;136.20;;;13.77;;
4603;SDS011;2314;48.272;11.562;2022-10-19T09:57:57;125.90;;;10.73;;
4603;SDS011;2314;48.272;11.562;2022-10-19T10:00:31;126.20;;;10.80;;
4603;SDS011;2314;48.272;11.562;2022-10-19T10:03:02;130.90;;;11.80;;
4603;SDS011;2314;48.272;11.562;2022-10-19T10:05:32;126.77;;;11.50;;
4603;SDS011;2314;48.272;11.562;2022-10-19T10:08:14;126.90;;;11.80;;
4603;SDS011;2314;48.272;11.562;2022-10-19T10:10:45;130.20;;;12.23;;
4603;SDS011;2314;48.272;11.562;2022-10-19T10:13:20;130.47;;;12.70;;
4603;SDS011;2314;48.272;11.562;2022-10-19T10:15:50;127.90;;;12.17;;
4603;SDS011;2314;48.272;11.562;2022-10-19T10:18:24;129.57;;;12.87;;
4603;SDS011;2314;48.272;11.562;2022-10-19T10:20:56;127.77;;;12.47;;
4603;SDS011;2314;48.272;11.562;2022-10-19T10:23:28;129.07;;;12.83;;
4603;SDS011;2314;48.272;11.562;2022-10-19T10:26:00;127.47;;;12.50;;
4603;SDS011;2314;48.272;11.562;2022-10-19T10:28:28;125.70;;;11.20;;
4603;SDS011;2314;48.272;11.562;2022-10-19T10:31:00;128.50;;;11.60;;
4603;SDS011;2314;48.272;11.562;2022-10-19T10:33:34;126.87;;;11.30;;
4603;SDS011;2314;48.272;11.562;2022-10-19T10:36:03;123.77;;;9.83;;
4603;SDS011;2314;48.272;11.562;2022-10-19T10:38:34;123.47;;;9.90;;
4603;SDS011;2314;48.272;11.562;2022-10-19T10:41:08;123.50;;;9.47;;
4603;SDS011;2314;48.272;11.562;2022-10-19T10:43:47;123.73;;;8.73;;
4603;SDS011;2314;48.272;11.562;2022-10-19T10:46:19;126.60;;;9.53;;
4603;SDS011;2314;48.272;11.562;2022-10-19T10:48:52;128.03;;;9.53;;
4603;SDS011;2314;48.272;11.562;2022-10-19T10:51:24;118.10;;;6.90;;
4603;SDS011;2314;48.272;11.562;2022-10-19T10:54:17;116.70;;;6.13;;
4603;SDS011;2314;48.272;11.562;2022-10-19T10:57:04;118.80;;;6.50;;
4603;SDS011;2314;48.272;11.562;2022-10-19T10:59:38;118.80;;;6.57;;
4603;SDS011;2314;48.272;11.562;2022-10-19T11:02:34;118.00;;;6.50;;
4603;SDS011;2314;48.272;11.562;2022-10-19T11:05:10;118.90;;;5.97;;
4603;SDS011;2314;48.272;11.562;2022-10-19T11:07:42;118.60;;;5.53;;
4603;SDS011;2314;48.272;11.562;2022-10-19T11:10:15;115.20;;;4.53;;
4603;SDS011;2314;48.272;11.562;2022-10-19T11:12:48;117.47;;;5.00;;
4603;SDS011;2314;48.272;11.562;2022-10-19T11:15:24;118.77;;;4.90;;
4603;SDS011;2314;48.272;11.562;2022-10-19T11:18:00;117.37;;;4.73;;
4603;SDS011;2314;48.272;11.562;2022-10-19T11:20:46;114.50;;;4.40;;
4603;SDS011;2314;48.272;11.562;2022-10-19T11:23:26;115.50;;;4.90;;
4603;SDS011;2314;48.272;11.562;2022-10-19T11:26:09;121.93;;;4.40;;
4603;SDS011;2314;48.272;11.562;2022-10-19T11:29:01;115.67;;;4.83;;
4603;SDS011;2314;48.272;11.562;2022-10-19T11:31:50;115.87;;;4.73;;
4603;SDS011;2314;48.272;11.562;2022-10-19T11:34:28;116.10;;;4.10;;
4603;SDS011;2314;48.272;11.562;2022-10-19T11:37:12;114.47;;;4.80;;
4603;SDS011;2314;48.272;11.562;2022-10-19T11:39:51;113.80;;;4.50;;
4603;SDS011;2314;48.272;11.562;2022-10-19T11:42:35;114.27;;;4.47;;
4603;SDS011;2314;48.272;11.562;2022-10-19T11:45:16;112.47;;;3.70;;
4603;SDS011;2314;48.272;11.562;2022-10-19T11:48:07;115.80;;;4.27;;
4603;SDS011;2314;48.272;11.562;2022-10-19T11:50:53;112.63;;;3.40;;
4603;SDS011;2314;48.272;11.562;2022-10-19T11:53:30;115.40;;;3.70;;
4603;SDS011;2314;48.272;11.562;2022-10-19T11:56:08;111.10;;;3.13;;
4603;SDS011;2314;48.272;11.562;2022-10-19T11:58:46;114.27;;;3.77;;
4603;SDS011;2314;48.272;11.562;2022-10-19T12:01:27;112.27;;;3.43;;
4603;SDS011;2314;48.272;11.562;2022-10-19T12:04:12;113.93;;;4.07;;
4603;SDS011;2314;48.272;11.562;2022-10-19T12:07:13;112.07;;;3.57;;
4603;SDS011;2314;48.272;11.562;2022-10-19T12:10:09;111.67;;;3.30;;
4603;SDS011;2314;48.272;11.562;2022-10-19T12:12:47;111.40;;;3.67;;
4603;SDS011;2314;48.272;11.562;2022-10-19T12:15:21;112.67;;;3.93;;
4603;SDS011;2314;48.272;11.562;2022-10-19T12:17:56;113.67;;;4.23;;
4603;SDS011;2314;48.272;11.562;2022-10-19T12:20:30;115.87;;;4.13;;
4603;SDS011;2314;48.272;11.562;2022-10-19T12:23:05;113.03;;;4.00;;
4603;SDS011;2314;48.272;11.562;2022-10-19T12:25:47;115.70;;;4.67;;
4603;SDS011;2314;48.272;11.562;2022-10-19T12:28:17;115.67;;;5.80;;
4603;SDS011;2314;48.272;11.562;2022-10-19T12:30:49;119.00;;;6.40;;
4603;SDS011;2314;48.272;11.562;2022-10-19T12:33:19;118.40;;;7.00;;
4603;SDS011;2314;48.272;11.562;2022-10-19T12:36:01;116.37;;;6.33;;
4603;SDS011;2314;48.272;11.562;2022-10-19T12:38:44;118.60;;;6.50;;
4603;SDS011;2314;48.272;11.562;2022-10-19T12:41:21;116.63;;;6.40;;
4603;SDS011;2314;48.272;11.562;2022-10-19T12:43:59;114.77;;;4.90;;
4603;SDS011;2314;48.272;11.562;2022-10-19T12:46:38;119.43;;;5.80;;
4603;SDS011;2314;48.272;11.562;2022-10-19T12:52:02;116.00;;;5.50;;
4603;SDS011;2314;48.272;11.562;2022-10-19T12:54:33;121.80;;;6.67;;
4603;SDS011;2314;48.272;11.562;2022-10-19T12:57:18;114.60;;;5.30;;
4603;SDS011;2314;48.272;11.562;2022-10-19T12:59:56;116.87;;;5.07;;
4603;SDS011;2314;48.272;11.562;2022-10-19T13:02:31;113.80;;;5.27;;
4603;SDS011;2314;48.272;11.562;2022-10-19T13:05:01;117.57;;;6.30;;
4603;SDS011;2314;48.272;11.562;2022-10-19T13:07:30;116.50;;;5.43;;
4603;SDS011;2314;48.272;11.562;2022-10-19T13:10:00;115.73;;;4.93;;
4603;SDS011;2314;48.272;11.562;2022-10-19T13:12:42;119.47;;;5.30;;
4603;SDS011;2314;48.272;11.562;2022-10-19T13:21:43;116.90;;;5.50;;
4603;SDS011;2314;48.272;11.562;2022-10-19T13:24:34;115.60;;;5.33;;
4603;SDS011;2314;48.272;11.562;2022-10-19T13:30:05;114.90;;;5.40;;
4603;SDS011;2314;48.272;11.562;2022-10-19T13:33:48;117.13;;;6.20;;
4603;SDS011;2314;48.272;11.562;2022-10-19T13:36:18;125.50;;;6.10;;
4603;SDS011;2314;48.272;11.562;2022-10-19T13:41:46;135.10;;;6.30;;
4603;SDS011;2314;48.272;11.562;2022-10-19T13:44:27;114.67;;;5.67;;
4603;SDS011;2314;48.272;11.562;2022-10-19T13:50:15;117.20;;;6.20;;
4603;SDS011;2314;48.272;11.562;2022-10-19T13:53:18;114.27;;;5.73;;
4603;SDS011;2314;48.272;11.562;2022-10-19T13:56:18;118.43;;;5.77;;
4603;SDS011;2314;48.272;11.562;2022-10-19T14:08:39;123.80;;;5.17;;
4603;SDS011;2314;48.272;11.562;2022-10-19T14:11:24;115.27;;;4.80;;
4603;SDS011;2314;48.272;11.562;2022-10-19T14:14:07;114.27;;;4.80;;
4603;SDS011;2314;48.272;11.562;2022-10-19T14:16:50;125.73;;;5.00;;
4603;SDS011;2314;48.272;11.562;2022-10-19T14:19:22;120.17;;;4.40;;
4603;SDS011;2314;48.272;11.562;2022-10-19T14:21:53;114.83;;;4.80;;
4603;SDS011;2314;48.272;11.562;2022-10-19T14:24:29;115.17;;;5.10;;
4603;SDS011;2314;48.272;11.562;2022-10-19T14:27:00;114.90;;;4.47;;
4603;SDS011;2314;48.272;11.562;2022-10-19T14:29:29;119.97;;;5.20;;
4603;SDS011;2314;48.272;11.562;2022-10-19T14:32:00;119.17;;;5.20;;
4603;SDS011;2314;48.272;11.562;2022-10-19T14:34:30;118.07;;;5.47;;
4603;SDS011;2314;48.272;11.562;2022-10-19T14:36:57;119.47;;;4.97;;
4603;SDS011;2314;48.272;11.562;2022-10-19T14:39:26;118.00;;;5.60;;
4603;SDS011;2314;48.272;11.562;2022-10-19T14:41:57;116.70;;;4.70;;
4603;SDS011;2314;48.272;11.562;2022-10-19T14:44:34;121.20;;;4.23;;
4603;SDS011;2314;48.272;11.562;2022-10-19T14:47:15;113.97;;;4.00;;
4603;SDS011;2314;48.272;11.562;2022-10-19T14:49:47;115.87;;;4.00;;
4603;SDS011;2314;48.272;11.562;2022-10-19T14:52:16;114.63;;;3.87;;
4603;SDS011;2314;48.272;11.562;2022-10-19T14:54:48;114.87;;;4.37;;
4603;SDS011;2314;48.272;11.562;2022-10-19T14:57:19;114.60;;;3.37;;
4603;SDS011;2314;48.272;11.562;2022-10-19T14:59:52;115.27;;;3.63;;
4603;SDS011;2314;48.272;11.562;2022-10-19T15:02:24;115.27;;;4.17;;
4603;SDS011;2314;48.272;11.562;2022-10-19T15:04:57;121.50;;;3.90;;
4603;SDS011;2314;48.272;11.562;2022-10-19T15:07:29;116.27;;;3.77;;
4603;SDS011;2314;48.272;11.562;2022-10-19T15:10:03;117.10;;;4.10;;
4603;SDS011;2314;48.272;11.562;2022-10-19T15:12:35;116.20;;;4.63;;
4603;SDS011;2314;48.272;11.562;2022-10-19T15:15:06;117.00;;;4.17;;
4603;SDS011;2314;48.272;11.562;2022-10-19T15:17:35;116.27;;;3.87;;
4603;SDS011;2314;48.272;11.562;2022-10-19T15:20:23;116.03;;;4.17;;
4603;SDS011;2314;48.272;11.562;2022-10-19T15:22:53;117.57;;;4.40;;
4603;SDS011;2314;48.272;11.562;2022-10-19T15:25:23;122.80;;;4.70;;